Time;durP1;ratioP1;P1;durP2;ratioP2;P2;SDS_P1;SDS_P2;PMS_P1;PMS_P2;Temp;Humidity;BMP_temperature;BMP_pressure;BME280_temperature;BME280_humidity;BME280_pressure;Samples;Min_cycle;Max_cycle;Signal;HPM_P1;HPM_P2
2023/11/30 00:02:16;;;;;;;0.87;0.87;;;1.00;95.70;;;;;;4937265;29;20192;-60
2023/11/30 00:04:41;;;;;;;0.70;0.70;;;1.00;95.60;;;;;;4937272;29;20183;-60
2023/11/30 00:07:11;;;;;;;0.60;0.40;;;1.00;95.60;;;;;;4937247;29;20591;-60
2023/11/30 00:09:37;;;;;;;0.80;0.80;;;1.00;95.70;;;;;;4937402;29;20184;-60
2023/11/30 00:12:06;;;;;;;1.47;1.10;;;0.90;95.90;;;;;;4937110;29;20169;-60
2023/11/30 00:14:33;;;;;;;0.40;0.40;;;0.90;96.20;;;;;;4936922;29;20415;-60
2023/11/30 00:16:58;;;;;;;0.30;0.30;;;1.00;96.20;;;;;;4936967;29;20207;-60
2023/11/30 00:19:24;;;;;;;1.30;1.20;;;1.00;96.00;;;;;;4937149;29;20179;-61
2023/11/30 00:21:50;;;;;;;0.30;0.30;;;1.10;96.00;;;;;;4937166;29;20204;-60
2023/11/30 00:24:16;;;;;;;0.40;0.40;;;1.00;96.20;;;;;;4936782;29;20199;-60
2023/11/30 00:26:43;;;;;;;0.40;0.40;;;1.10;96.20;;;;;;4936964;29;20656;-60
2023/11/30 00:29:08;;;;;;;2.47;1.52;;;1.20;96.20;;;;;;4936893;29;20181;-60
2023/11/30 00:31:34;;;;;;;1.67;1.10;;;1.20;96.20;;;;;;4936831;29;20184;-60
2023/11/30 00:34:00;;;;;;;4.43;1.73;;;1.00;96.00;;;;;;4936688;29;20208;-60
2023/11/30 00:36:25;;;;;;;0.40;0.40;;;1.00;96.30;;;;;;4937041;29;20181;-60
2023/11/30 00:38:51;;;;;;;1.27;0.60;;;1.00;96.70;;;;;;4937394;29;20177;-60
2023/11/30 00:41:18;;;;;;;0.50;0.50;;;1.10;96.90;;;;;;4936673;29;20178;-60
2023/11/30 00:43:43;;;;;;;0.60;0.60;;;1.20;96.60;;;;;;4936477;29;20612;-60
2023/11/30 00:46:13;;;;;;;0.40;0.40;;;1.20;96.10;;;;;;4936803;29;20216;-60
2023/11/30 00:48:39;;;;;;;0.60;0.60;;;1.30;96.10;;;;;;4936545;29;20184;-59
2023/11/30 00:51:09;;;;;;;0.93;0.90;;;1.30;96.10;;;;;;4936633;29;20176;-60
2023/11/30 00:53:34;;;;;;;0.68;0.68;;;1.30;96.00;;;;;;4936100;29;20215;-60
2023/11/30 00:56:00;;;;;;;0.70;0.57;;;1.30;95.90;;;;;;4936420;29;20171;-60
2023/11/30 00:58:25;;;;;;;0.37;0.37;;;1.30;95.90;;;;;;4936505;29;20184;-60
2023/11/30 01:00:51;;;;;;;1.33;0.60;;;1.30;96.00;;;;;;4936391;29;20169;-60
2023/11/30 01:03:17;;;;;;;0.65;0.60;;;1.20;96.20;;;;;;4936017;29;20287;-60
2023/11/30 01:05:43;;;;;;;0.50;0.50;;;1.20;96.60;;;;;;4935438;29;20261;-60
2023/11/30 01:08:08;;;;;;;1.03;0.50;;;1.20;96.50;;;;;;4936313;29;20185;-61
2023/11/30 01:10:34;;;;;;;0.40;0.40;;;1.20;96.50;;;;;;4936184;29;20617;-60
2023/11/30 01:13:01;;;;;;;0.40;0.40;;;1.20;96.30;;;;;;4935885;29;20678;-60
2023/11/30 01:15:27;;;;;;;0.52;0.40;;;1.30;96.00;;;;;;4936138;29;20177;-61
2023/11/30 01:17:52;;;;;;;1.40;0.97;;;1.30;95.90;;;;;;4936213;29;20262;-60
2023/11/30 01:20:18;;;;;;;0.30;0.30;;;1.30;96.40;;;;;;4935987;29;20558;-60
2023/11/30 01:22:43;;;;;;;0.77;0.77;;;1.20;96.30;;;;;;4945171;29;20431;-60
2023/11/30 01:25:09;;;;;;;0.50;0.50;;;1.20;96.20;;;;;;4955028;29;20183;-60
2023/11/30 01:27:35;;;;;;;0.50;0.50;;;1.20;96.20;;;;;;4955111;29;20341;-60
2023/11/30 01:30:00;;;;;;;0.90;0.90;;;1.20;96.40;;;;;;4955061;29;20175;-60
2023/11/30 01:32:26;;;;;;;0.50;0.50;;;1.20;96.40;;;;;;4954941;29;20194;-60
2023/11/30 01:34:53;;;;;;;0.40;0.40;;;1.20;96.40;;;;;;4954833;29;20182;-60
2023/11/30 01:37:18;;;;;;;0.63;0.63;;;1.10;96.60;;;;;;4954949;29;20171;-60
2023/11/30 01:39:44;;;;;;;1.80;1.70;;;1.10;96.80;;;;;;4954839;29;20294;-60
2023/11/30 01:42:09;;;;;;;0.63;0.63;;;1.00;97.00;;;;;;4954919;29;20634;-60
2023/11/30 01:44:36;;;;;;;1.43;0.77;;;1.10;97.00;;;;;;4954481;29;20258;-60
2023/11/30 01:47:02;;;;;;;0.93;0.60;;;1.30;96.80;;;;;;4954719;29;20252;-60
2023/11/30 01:49:28;;;;;;;0.47;0.47;;;1.30;96.60;;;;;;4937669;29;20274;-60
2023/11/30 01:51:54;;;;;;;1.00;0.97;;;1.40;96.60;;;;;;4954657;29;20403;-60
2023/11/30 01:54:20;;;;;;;1.10;1.10;;;1.40;96.70;;;;;;4954154;29;20223;-60
2023/11/30 01:56:45;;;;;;;1.90;1.80;;;1.40;96.60;;;;;;4954828;29;20422;-60
2023/11/30 01:59:12;;;;;;;0.90;0.70;;;1.40;96.80;;;;;;4954104;29;20191;-60
2023/11/30 02:01:38;;;;;;;1.27;1.17;;;1.50;96.80;;;;;;4955164;29;20179;-60
2023/11/30 02:04:15;;;;;;;1.03;1.03;;;1.50;96.40;;;;;;4954229;29;20207;-60
2023/11/30 02:06:43;;;;;;;0.98;0.98;;;1.60;96.60;;;;;;4954272;29;20689;-60
2023/11/30 02:09:10;;;;;;;0.50;0.50;;;1.50;96.70;;;;;;4954264;29;20184;-60
2023/11/30 02:11:36;;;;;;;1.42;1.08;;;1.50;96.80;;;;;;4954321;29;20203;-60
2023/11/30 02:14:03;;;;;;;1.13;1.10;;;1.60;96.70;;;;;;4953961;29;20237;-60
2023/11/30 02:16:28;;;;;;;0.82;0.82;;;1.60;96.50;;;;;;4954345;28;20177;-60
2023/11/30 02:18:54;;;;;;;0.63;0.63;;;1.60;96.50;;;;;;4954245;29;20678;-60
2023/11/30 02:21:20;;;;;;;0.50;0.50;;;1.60;96.40;;;;;;4954113;29;20410;-60
2023/11/30 02:23:47;;;;;;;0.50;0.50;;;1.70;96.20;;;;;;4953768;29;20199;-60
2023/11/30 02:26:15;;;;;;;1.88;1.10;;;1.70;96.10;;;;;;4954019;29;20573;-60
2023/11/30 02:28:40;;;;;;;1.02;0.65;;;1.60;96.30;;;;;;4955346;29;20177;-60
2023/11/30 02:31:06;;;;;;;0.93;0.93;;;1.60;96.50;;;;;;4954140;29;20572;-61
2023/11/30 02:33:32;;;;;;;3.27;1.53;;;1.60;96.70;;;;;;4953681;29;20197;-61
2023/11/30 02:35:57;;;;;;;1.90;0.60;;;1.60;96.80;;;;;;4953900;29;20542;-61
2023/11/30 02:38:24;;;;;;;0.50;0.50;;;1.70;97.00;;;;;;4953801;29;20237;-61
2023/11/30 02:40:50;;;;;;;1.38;0.57;;;1.70;96.90;;;;;;4953780;29;20195;-61
2023/11/30 02:43:15;;;;;;;1.10;1.10;;;1.80;96.50;;;;;;4953446;29;20189;-61
2023/11/30 02:45:41;;;;;;;0.50;0.50;;;1.80;96.50;;;;;;4953864;29;20578;-61
2023/11/30 02:48:06;;;;;;;1.40;1.30;;;1.90;96.60;;;;;;4953697;29;20254;-61
2023/11/30 02:50:32;;;;;;;3.20;2.43;;;1.90;96.20;;;;;;4953688;29;20178;-60
2023/11/30 02:52:58;;;;;;;3.63;1.40;;;1.90;96.20;;;;;;4925887;29;20267;-60
2023/11/30 02:55:24;;;;;;;0.70;0.70;;;1.90;96.20;;;;;;4934597;29;20176;-61
2023/11/30 02:57:50;;;;;;;2.20;1.43;;;1.90;96.30;;;;;;4934107;29;20236;-61
2023/11/30 03:00:16;;;;;;;4.50;1.83;;;1.90;96.60;;;;;;4934456;29;20189;-61
2023/11/30 03:02:42;;;;;;;1.65;1.60;;;2.00;96.70;;;;;;4934312;29;20210;-61
2023/11/30 03:05:07;;;;;;;0.40;0.40;;;2.00;96.70;;;;;;4934140;29;20795;-61
2023/11/30 03:07:33;;;;;;;0.50;0.50;;;2.00;96.50;;;;;;4933901;29;20213;-61
2023/11/30 03:09:58;;;;;;;1.13;0.80;;;2.00;96.60;;;;;;4933988;29;20186;-61
2023/11/30 03:12:25;;;;;;;0.90;0.90;;;2.00;96.50;;;;;;4932956;29;20197;-60
2023/11/30 03:14:51;;;;;;;0.40;0.40;;;2.00;96.70;;;;;;4933127;29;20178;-61
2023/11/30 03:17:17;;;;;;;0.60;0.43;;;2.00;96.50;;;;;;4933978;29;20682;-61
2023/11/30 03:19:43;;;;;;;0.60;0.60;;;2.10;96.30;;;;;;4917450;29;20669;-61
2023/11/30 03:22:09;;;;;;;1.17;1.15;;;2.00;96.40;;;;;;4917035;29;20300;-61
2023/11/30 03:24:35;;;;;;;0.70;0.70;;;2.00;96.50;;;;;;4934258;29;20245;-61
2023/11/30 03:27:01;;;;;;;0.80;0.80;;;2.00;96.60;;;;;;4934279;29;20201;-61
2023/11/30 03:29:26;;;;;;;0.50;0.50;;;2.00;96.60;;;;;;4935636;29;20608;-61
2023/11/30 03:31:52;;;;;;;1.13;1.13;;;2.00;96.80;;;;;;4938081;29;20177;-61
2023/11/30 03:34:17;;;;;;;4.23;0.90;;;2.00;97.00;;;;;;4937743;29;20189;-61
2023/11/30 03:36:43;;;;;;;3.53;3.33;;;2.10;96.60;;;;;;4937950;29;20190;-61
2023/11/30 03:39:09;;;;;;;0.77;0.60;;;2.10;96.50;;;;;;4937981;29;20177;-61
2023/11/30 03:41:34;;;;;;;0.67;0.67;;;2.10;96.60;;;;;;4937909;29;20547;-60
2023/11/30 03:44:00;;;;;;;3.50;1.33;;;2.00;96.70;;;;;;4937666;29;20221;-61
2023/11/30 03:46:27;;;;;;;1.17;1.17;;;2.10;96.70;;;;;;4937724;29;20710;-61
2023/11/30 03:48:54;;;;;;;0.90;0.90;;;2.10;96.50;;;;;;4937832;29;20546;-61
2023/11/30 03:51:20;;;;;;;2.38;0.85;;;2.10;96.50;;;;;;4937846;29;20177;-61
2023/11/30 03:53:46;;;;;;;1.15;1.15;;;2.10;96.70;;;;;;4937188;29;20197;-61
2023/11/30 03:56:11;;;;;;;0.60;0.60;;;2.10;96.90;;;;;;4937744;29;20659;-61
2023/11/30 03:58:37;;;;;;;0.70;0.70;;;2.00;96.90;;;;;;4937508;29;20457;-61
2023/11/30 04:01:03;;;;;;;1.40;1.13;;;2.00;96.90;;;;;;4937800;29;20185;-61
2023/11/30 04:03:28;;;;;;;3.00;2.80;;;2.10;96.80;;;;;;4920020;29;20559;-61
2023/11/30 04:05:54;;;;;;;2.10;1.57;;;2.10;96.70;;;;;;4937398;29;20431;-61
2023/11/30 04:08:20;;;;;;;1.90;1.10;;;2.00;96.50;;;;;;4920463;29;20185;-61
2023/11/30 04:10:45;;;;;;;1.60;1.50;;;2.00;96.70;;;;;;4937444;29;20174;-61
2023/11/30 04:13:11;;;;;;;1.40;1.30;;;2.00;97.00;;;;;;4936838;29;20637;-61
2023/11/30 04:15:37;;;;;;;0.60;0.50;;;2.10;97.10;;;;;;4937588;29;20187;-61
2023/11/30 04:18:02;;;;;;;0.60;0.60;;;2.00;97.20;;;;;;4937497;29;20207;-61
2023/11/30 04:20:28;;;;;;;4.67;2.33;;;1.80;97.30;;;;;;4937317;29;20522;-60
2023/11/30 04:22:53;;;;;;;0.80;0.80;;;1.80;97.60;;;;;;4936845;29;20208;-61
2023/11/30 04:25:19;;;;;;;1.30;1.20;;;1.90;97.70;;;;;;4937264;29;20178;-61
2023/11/30 04:27:45;;;;;;;1.23;1.23;;;2.00;97.80;;;;;;4936986;29;20306;-61
2023/11/30 04:30:11;;;;;;;0.83;0.83;;;2.10;97.60;;;;;;4937581;29;20259;-61
2023/11/30 04:32:36;;;;;;;0.80;0.80;;;2.20;97.30;;;;;;4936971;29;20189;-61
2023/11/30 04:35:02;;;;;;;1.43;0.90;;;2.20;97.10;;;;;;4919734;29;20421;-61
2023/11/30 04:37:28;;;;;;;0.87;0.87;;;2.20;97.00;;;;;;4936990;29;20174;-61
2023/11/30 04:39:53;;;;;;;0.50;0.50;;;2.20;97.20;;;;;;4936351;29;20245;-61
2023/11/30 04:42:20;;;;;;;1.40;1.30;;;2.20;97.20;;;;;;4935950;29;20256;-61
2023/11/30 04:44:45;;;;;;;1.90;1.70;;;2.20;97.00;;;;;;4936621;29;20176;-60
2023/11/30 04:47:11;;;;;;;2.97;2.80;;;2.20;97.10;;;;;;4936863;29;20587;-61
2023/11/30 04:49:37;;;;;;;1.03;0.77;;;2.20;97.30;;;;;;4937502;29;20171;-61
2023/11/30 04:52:02;;;;;;;0.97;0.97;;;2.10;97.40;;;;;;4936713;29;20173;-61
2023/11/30 04:54:28;;;;;;;1.03;0.83;;;2.10;97.40;;;;;;4936338;29;20586;-61
2023/11/30 04:56:54;;;;;;;1.80;1.30;;;2.10;97.50;;;;;;4936480;29;20190;-61
2023/11/30 04:59:19;;;;;;;2.43;1.80;;;2.00;97.60;;;;;;4936611;29;20178;-61
2023/11/30 05:01:45;;;;;;;0.80;0.80;;;2.10;97.50;;;;;;4936718;29;20189;-61
2023/11/30 05:04:10;;;;;;;20.63;2.03;;;2.20;97.50;;;;;;4936225;29;20194;-61
2023/11/30 05:06:36;;;;;;;0.80;0.70;;;2.10;97.50;;;;;;4936593;29;20574;-61
2023/11/30 05:09:02;;;;;;;0.57;0.57;;;2.10;97.60;;;;;;4916865;29;20210;-61
2023/11/30 05:11:28;;;;;;;2.53;1.88;;;2.20;97.80;;;;;;4936231;29;20180;-61
2023/11/30 05:13:54;;;;;;;4.63;1.25;;;2.30;97.50;;;;;;4936112;29;20209;-61
2023/11/30 05:16:20;;;;;;;2.20;2.00;;;2.30;97.10;;;;;;4936325;29;20571;-61
2023/11/30 05:18:45;;;;;;;3.40;2.50;;;2.30;97.10;;;;;;4935589;29;20197;-61
2023/11/30 05:21:11;;;;;;;3.90;1.83;;;2.30;97.10;;;;;;4936253;29;20174;-61
2023/11/30 05:23:36;;;;;;;2.00;1.90;;;2.30;97.20;;;;;;4935815;29;20201;-61
2023/11/30 05:26:02;;;;;;;3.37;3.07;;;2.30;97.50;;;;;;4935852;29;20174;-61
2023/11/30 05:28:28;;;;;;;1.70;0.83;;;2.30;97.50;;;;;;4936118;29;20574;-61
2023/11/30 05:30:53;;;;;;;2.10;0.73;;;2.30;97.10;;;;;;4935999;29;20174;-61
2023/11/30 05:33:19;;;;;;;1.17;1.00;;;2.40;97.10;;;;;;4935619;29;20726;-61
2023/11/30 05:35:45;;;;;;;4.13;2.50;;;2.40;97.10;;;;;;4918906;29;20178;-61
2023/11/30 05:38:10;;;;;;;1.80;1.07;;;2.30;97.30;;;;;;4935846;29;20191;-61
2023/11/30 05:40:36;;;;;;;3.13;1.80;;;2.40;97.60;;;;;;4935835;29;20554;-61
2023/11/30 05:43:02;;;;;;;1.70;1.60;;;2.40;97.60;;;;;;4935468;29;20921;-61
2023/11/30 05:45:27;;;;;;;3.23;3.03;;;2.50;97.20;;;;;;4935789;29;20251;-61
2023/11/30 05:47:53;;;;;;;2.57;2.47;;;2.40;97.00;;;;;;4935663;29;20212;-61
2023/11/30 05:50:19;;;;;;;1.70;1.47;;;2.50;96.90;;;;;;4918725;29;20212;-61
2023/11/30 05:52:45;;;;;;;4.43;2.80;;;2.50;96.80;;;;;;4934756;29;20591;-61
2023/11/30 05:55:14;;;;;;;2.20;1.92;;;2.40;96.70;;;;;;4935188;29;20413;-61
2023/11/30 05:57:40;;;;;;;2.70;2.45;;;2.40;97.10;;;;;;4935664;29;20192;-61
2023/11/30 06:00:06;;;;;;;1.60;0.93;;;2.40;97.20;;;;;;4935524;29;20180;-61
2023/11/30 06:02:32;;;;;;;4.95;2.38;;;2.40;97.20;;;;;;4935515;29;20197;-61
2023/11/30 06:04:58;;;;;;;3.03;2.03;;;2.40;97.10;;;;;;4935218;29;20236;-61
2023/11/30 06:07:24;;;;;;;1.80;1.70;;;2.40;97.00;;;;;;4935250;29;20693;-61
2023/11/30 06:09:52;;;;;;;7.00;3.80;;;2.40;97.00;;;;;;4935225;29;20424;-61
2023/11/30 06:12:19;;;;;;;1.02;0.82;;;2.40;97.30;;;;;;4935089;29;20541;-61
2023/11/30 06:14:45;;;;;;;14.60;4.07;;;2.40;97.50;;;;;;4935610;29;20260;-61
2023/11/30 06:17:12;;;;;;;6.03;4.97;;;2.40;97.50;;;;;;4918214;29;20181;-61
2023/11/30 06:19:38;;;;;;;2.63;1.10;;;2.40;97.40;;;;;;4935108;29;20178;-61
2023/11/30 06:22:06;;;;;;;1.58;1.38;;;2.40;97.20;;;;;;4934952;29;20550;-61
2023/11/30 06:24:31;;;;;;;3.53;1.88;;;2.40;97.10;;;;;;4934644;29;20545;-61
2023/11/30 06:26:57;;;;;;;1.97;1.87;;;2.40;97.10;;;;;;4934348;29;20216;-61
2023/11/30 06:29:23;;;;;;;3.33;1.17;;;2.40;97.50;;;;;;4938231;29;20185;-60
2023/11/30 06:31:49;;;;;;;1.83;0.83;;;2.40;97.70;;;;;;4954005;29;20183;-61
2023/11/30 06:34:14;;;;;;;2.83;1.60;;;2.40;97.80;;;;;;4953730;29;20215;-61
2023/11/30 06:36:40;;;;;;;0.40;0.40;;;2.50;97.80;;;;;;4953719;29;20188;-61
2023/11/30 06:39:05;;;;;;;6.03;3.20;;;2.50;97.70;;;;;;4953794;29;20173;-61
2023/11/30 06:41:31;;;;;;;2.97;2.23;;;2.50;97.50;;;;;;4953893;29;20174;-61
2023/11/30 06:43:57;;;;;;;2.47;1.80;;;2.50;97.60;;;;;;4953530;29;20255;-61
2023/11/30 06:46:22;;;;;;;2.73;2.63;;;2.50;97.50;;;;;;4953750;29;20200;-61
2023/11/30 06:48:49;;;;;;;1.10;1.10;;;2.60;97.40;;;;;;4953748;29;20224;-61
2023/11/30 06:51:15;;;;;;;3.00;1.70;;;2.60;97.40;;;;;;4936541;29;20186;-61
2023/11/30 06:53:41;;;;;;;3.67;3.40;;;2.60;97.30;;;;;;4941977;29;20214;-61
2023/11/30 06:56:10;;;;;;;3.50;3.20;;;2.60;97.50;;;;;;4916683;29;20869;-61
2023/11/30 06:58:35;;;;;;;3.45;3.22;;;2.60;97.60;;;;;;4920885;29;20432;-62
2023/11/30 07:01:03;;;;;;;30.87;3.97;;;2.70;97.40;;;;;;4952994;29;20481;-61
2023/11/30 07:03:30;;;;;;;3.03;2.60;;;2.70;97.10;;;;;;4934699;29;20248;-61
2023/11/30 07:05:56;;;;;;;1.10;1.00;;;2.70;97.10;;;;;;4952616;29;20189;-63
2023/11/30 07:08:22;;;;;;;2.77;2.50;;;2.70;97.30;;;;;;4952780;29;20265;-61
2023/11/30 07:10:47;;;;;;;1.23;1.23;;;2.60;97.40;;;;;;4952834;29;20180;-60
2023/11/30 07:13:13;;;;;;;1.25;1.15;;;2.70;97.40;;;;;;4952594;29;20224;-59
2023/11/30 07:15:39;;;;;;;1.97;1.87;;;2.70;97.50;;;;;;4952593;29;20169;-60
2023/11/30 07:18:05;;;;;;;3.10;3.00;;;2.70;97.60;;;;;;4949201;29;20188;-61
2023/11/30 07:20:31;;;;;;;1.53;1.47;;;2.70;97.70;;;;;;4933293;29;20576;-61
2023/11/30 07:22:58;;;;;;;3.70;1.48;;;2.70;97.80;;;;;;4919711;29;20456;-60
2023/11/30 07:25:25;;;;;;;2.10;2.00;;;2.70;97.90;;;;;;4933614;29;20612;-60
2023/11/30 07:27:53;;;;;;;2.47;1.85;;;2.70;97.40;;;;;;4931732;29;20225;-60
2023/11/30 07:30:19;;;;;;;1.75;1.73;;;2.70;97.60;;;;;;4933961;29;20174;-59
2023/11/30 07:32:44;;;;;;;2.50;2.30;;;2.70;97.80;;;;;;4934177;29;20193;-60
2023/11/30 07:35:10;;;;;;;1.13;0.80;;;2.70;97.90;;;;;;4933392;29;20226;-60
2023/11/30 07:37:36;;;;;;;2.30;1.90;;;2.80;98.00;;;;;;4932357;29;20178;-60
2023/11/30 07:40:03;;;;;;;2.00;0.83;;;2.80;97.90;;;;;;4934178;29;20174;-60
2023/11/30 07:42:28;;;;;;;1.30;1.20;;;2.90;97.80;;;;;;4931608;29;20222;-60
2023/11/30 07:44:54;;;;;;;5.10;2.80;;;2.90;97.60;;;;;;4930244;29;20217;-60
2023/11/30 07:47:20;;;;;;;4.17;2.40;;;2.90;97.50;;;;;;4948406;29;20193;-61
2023/11/30 07:49:47;;;;;;;3.60;3.40;;;2.90;97.50;;;;;;4912086;29;20178;-60
2023/11/30 07:52:14;;;;;;;0.77;0.77;;;3.00;97.60;;;;;;4870020;29;1173356;-60
2023/11/30 07:54:40;;;;;;;1.75;1.55;;;3.00;98.00;;;;;;4933974;29;20225;-60
2023/11/30 07:57:06;;;;;;;2.20;1.23;;;3.00;97.80;;;;;;4934534;29;20214;-60
2023/11/30 07:59:32;;;;;;;1.13;0.70;;;3.10;97.80;;;;;;4934463;29;20509;-59
2023/11/30 08:01:57;;;;;;;1.17;1.07;;;3.00;97.70;;;;;;4934566;29;20171;-60
2023/11/30 08:04:23;;;;;;;0.50;0.50;;;3.10;97.80;;;;;;4934012;29;20198;-60
2023/11/30 08:06:48;;;;;;;3.50;3.33;;;3.00;97.60;;;;;;4934448;29;20260;-60
2023/11/30 08:09:14;;;;;;;0.70;0.70;;;3.10;97.70;;;;;;4934452;29;20621;-60
2023/11/30 08:11:43;;;;;;;1.50;1.40;;;3.10;97.30;;;;;;4917237;29;20601;-60
2023/11/30 08:14:09;;;;;;;6.45;2.17;;;3.20;97.00;;;;;;4916450;29;20631;-60
2023/11/30 08:16:35;;;;;;;1.00;0.97;;;3.20;97.10;;;;;;4937450;29;20178;-59
2023/11/30 08:19:00;;;;;;;1.80;1.70;;;3.20;97.30;;;;;;4938029;29;20209;-60
2023/11/30 08:21:27;;;;;;;0.80;0.80;;;3.10;97.50;;;;;;4936887;29;20605;-59
2023/11/30 08:23:53;;;;;;;1.10;1.10;;;3.20;97.90;;;;;;4937072;29;20196;-60
2023/11/30 08:26:19;;;;;;;0.50;0.50;;;3.20;97.40;;;;;;4938072;29;20665;-60
2023/11/30 08:28:46;;;;;;;0.60;0.60;;;3.20;97.30;;;;;;4937896;29;20166;-59
2023/11/30 08:31:13;;;;;;;1.52;1.42;;;3.20;97.50;;;;;;4937335;29;20178;-59
2023/11/30 08:33:39;;;;;;;5.35;1.70;;;3.30;97.40;;;;;;4937043;29;20685;-60
2023/11/30 08:36:05;;;;;;;0.97;0.80;;;3.30;97.50;;;;;;4936850;29;20178;-60
2023/11/30 08:38:36;;;;;;;0.70;0.70;;;3.30;97.60;;;;;;4937593;29;20182;-64
2023/11/30 08:41:03;;;;;;;1.70;1.60;;;3.40;97.70;;;;;;4936917;29;20257;-62
2023/11/30 08:43:28;;;;;;;1.80;1.50;;;3.40;97.60;;;;;;4936676;29;20594;-60
2023/11/30 08:45:54;;;;;;;1.53;1.40;;;3.30;97.70;;;;;;4933650;29;20194;-61
2023/11/30 08:48:20;;;;;;;1.53;1.03;;;3.40;97.70;;;;;;4927820;29;21006;-60
2023/11/30 08:50:47;;;;;;;2.20;0.93;;;3.40;97.70;;;;;;4928013;29;20830;-60
2023/11/30 08:53:12;;;;;;;0.40;0.40;;;3.40;97.70;;;;;;4917862;29;20230;-60
2023/11/30 08:55:38;;;;;;;1.30;1.10;;;3.50;97.60;;;;;;4901044;29;20210;-60
2023/11/30 08:58:04;;;;;;;0.40;0.40;;;3.60;97.50;;;;;;4900603;29;20270;-60
2023/11/30 09:00:30;;;;;;;0.40;0.40;;;3.60;97.50;;;;;;4916994;29;20171;-59
2023/11/30 09:02:56;;;;;;;1.27;1.13;;;3.70;97.20;;;;;;4899702;29;20205;-60
2023/11/30 09:05:23;;;;;;;0.50;0.50;;;3.70;97.30;;;;;;4917577;29;20175;-60
2023/11/30 09:07:50;;;;;;;0.40;0.40;;;3.70;97.40;;;;;;4917472;29;20266;-57
2023/11/30 09:10:19;;;;;;;0.40;0.40;;;3.70;97.40;;;;;;4917582;29;20182;-57
2023/11/30 09:12:45;;;;;;;0.40;0.40;;;3.70;97.20;;;;;;4917158;29;20294;-58
2023/11/30 09:15:12;;;;;;;0.40;0.40;;;3.80;97.30;;;;;;4917221;29;20633;-59
2023/11/30 09:17:37;;;;;;;0.63;0.63;;;3.70;97.30;;;;;;4917267;29;20274;-62
2023/11/30 09:20:07;;;;;;;0.40;0.40;;;3.70;97.40;;;;;;4921807;29;20335;-62
2023/11/30 09:22:33;;;;;;;0.82;0.80;;;3.80;97.50;;;;;;4936085;29;20256;-60
2023/11/30 09:24:58;;;;;;;0.40;0.40;;;3.70;97.50;;;;;;4935976;29;20692;-61
2023/11/30 09:27:24;;;;;;;0.40;0.40;;;3.70;97.60;;;;;;4935269;29;20248;-59
2023/11/30 09:29:49;;;;;;;0.30;0.30;;;3.70;97.40;;;;;;4936392;29;20170;-60
2023/11/30 09:32:16;;;;;;;0.40;0.40;;;3.80;97.60;;;;;;4936175;29;20173;-60
2023/11/30 09:34:41;;;;;;;0.50;0.50;;;3.70;97.50;;;;;;4935980;29;20275;-60
2023/11/30 09:37:07;;;;;;;1.07;0.53;;;3.80;97.70;;;;;;4936375;29;20182;-60
2023/11/30 09:39:34;;;;;;;0.40;0.40;;;3.80;97.80;;;;;;4936244;29;20182;-60
2023/11/30 09:42:00;;;;;;;0.30;0.30;;;3.70;97.90;;;;;;4936050;29;20174;-60
2023/11/30 09:44:30;;;;;;;0.40;0.40;;;3.70;98.00;;;;;;4935457;29;20178;-60
2023/11/30 09:46:55;;;;;;;0.38;0.38;;;3.80;98.30;;;;;;4935049;29;20206;-60
2023/11/30 09:49:21;;;;;;;0.40;0.40;;;3.80;98.30;;;;;;4934257;29;20194;-61
2023/11/30 09:51:52;;;;;;;0.40;0.40;;;3.90;98.00;;;;;;4934554;29;20707;-61
2023/11/30 09:54:22;;;;;;;0.40;0.40;;;3.90;97.90;;;;;;4933931;29;20273;-61
2023/11/30 09:56:49;;;;;;;0.82;0.57;;;4.00;98.10;;;;;;4935452;29;20194;-61
2023/11/30 09:59:14;;;;;;;0.40;0.40;;;4.00;98.10;;;;;;4935624;29;20178;-60
2023/11/30 10:01:42;;;;;;;0.30;0.30;;;4.00;98.10;;;;;;4935621;29;20227;-60
2023/11/30 10:04:18;;;;;;;0.40;0.40;;;4.00;98.10;;;;;;4935216;29;20195;-60
2023/11/30 10:06:46;;;;;;;0.73;0.73;;;4.10;98.10;;;;;;4935038;29;20256;-62
2023/11/30 10:09:14;;;;;;;0.40;0.40;;;4.00;97.90;;;;;;4935639;29;20613;-60
2023/11/30 10:11:40;;;;;;;2.67;1.25;;;4.00;97.90;;;;;;4935328;29;20747;-61
2023/11/30 10:14:07;;;;;;;0.40;0.40;;;4.00;98.10;;;;;;4935002;29;20218;-61
2023/11/30 10:16:35;;;;;;;0.40;0.40;;;4.00;98.10;;;;;;4935147;29;20182;-61
2023/11/30 10:19:02;;;;;;;0.35;0.35;;;3.90;98.20;;;;;;4935252;29;20186;-60
2023/11/30 10:21:28;;;;;;;0.38;0.38;;;4.00;98.20;;;;;;4935435;29;20201;-60
2023/11/30 10:23:54;;;;;;;0.40;0.40;;;4.10;98.10;;;;;;4917938;29;20210;-61
2023/11/30 10:26:22;;;;;;;0.60;0.60;;;4.20;97.80;;;;;;4935102;29;20553;-60
2023/11/30 10:28:52;;;;;;;0.30;0.30;;;4.20;97.50;;;;;;4934974;29;20241;-60
2023/11/30 10:31:21;;;;;;;0.38;0.38;;;4.30;97.50;;;;;;4935306;29;20245;-60
2023/11/30 10:33:58;;;;;;;0.50;0.50;;;4.30;97.50;;;;;;4934463;29;20186;-60
2023/11/30 10:36:26;;;;;;;0.30;0.30;;;4.30;97.60;;;;;;4935206;29;20298;-60
2023/11/30 10:38:56;;;;;;;0.38;0.38;;;4.30;97.60;;;;;;4917791;29;20237;-60
2023/11/30 10:41:30;;;;;;;0.50;0.50;;;4.40;97.80;;;;;;4935283;29;20260;-60
2023/11/30 10:43:58;;;;;;;0.30;0.30;;;4.40;97.30;;;;;;4934549;29;20325;-60
2023/11/30 10:46:25;;;;;;;0.40;0.40;;;4.40;97.10;;;;;;4935238;29;20195;-60
2023/11/30 10:48:53;;;;;;;0.40;0.40;;;4.40;97.00;;;;;;4934574;29;20173;-60
2023/11/30 10:51:19;;;;;;;1.13;1.08;;;4.40;97.20;;;;;;4935162;29;20254;-60
2023/11/30 10:54:06;;;;;;;1.00;1.00;;;4.40;96.90;;;;;;4917252;29;20202;-60
2023/11/30 10:56:33;;;;;;;0.40;0.40;;;4.30;96.90;;;;;;4934936;29;20171;-60
2023/11/30 10:58:59;;;;;;;0.40;0.40;;;4.40;97.00;;;;;;4934996;29;20326;-59
2023/11/30 11:01:26;;;;;;;0.47;0.40;;;4.40;96.80;;;;;;4935037;29;20233;-60
2023/11/30 11:03:56;;;;;;;0.68;0.68;;;4.40;96.50;;;;;;4934593;29;20206;-60
2023/11/30 11:06:25;;;;;;;0.40;0.40;;;4.40;96.40;;;;;;4934500;29;20178;-58
2023/11/30 11:09:17;;;;;;;0.40;0.40;;;4.50;96.60;;;;;;4935601;29;20182;-60
2023/11/30 11:11:48;;;;;;;0.95;0.52;;;4.50;96.70;;;;;;4932134;29;20277;-60
2023/11/30 11:14:32;;;;;;;0.40;0.40;;;4.50;96.90;;;;;;4934173;29;20251;-60
2023/11/30 11:17:09;;;;;;;0.40;0.40;;;4.50;97.10;;;;;;4934851;29;20671;-60
2023/11/30 11:19:42;;;;;;;0.68;0.68;;;4.50;97.50;;;;;;4934559;29;20189;-60
2023/11/30 11:22:26;;;;;;;1.00;1.00;;;4.60;97.40;;;;;;4934695;29;20240;-60
2023/11/30 11:25:02;;;;;;;1.00;1.00;;;4.60;97.60;;;;;;4934104;29;20175;-60
2023/11/30 11:27:30;;;;;;;1.98;1.75;;;4.60;97.80;;;;;;4934586;29;20278;-60
2023/11/30 11:29:58;;;;;;;1.77;1.67;;;4.70;97.90;;;;;;4934488;29;20181;-60
2023/11/30 11:32:30;;;;;;;0.65;0.65;;;4.70;97.90;;;;;;4934140;29;20580;-60
2023/11/30 11:34:56;;;;;;;1.27;1.20;;;4.90;97.90;;;;;;4934524;29;20654;-60
2023/11/30 11:37:22;;;;;;;1.45;1.35;;;5.00;97.20;;;;;;4934528;29;20183;-60
2023/11/30 11:39:51;;;;;;;0.40;0.40;;;5.00;96.80;;;;;;4917974;29;20189;-60
2023/11/30 11:42:17;;;;;;;0.90;0.90;;;5.10;96.80;;;;;;4934464;29;20189;-60
2023/11/30 11:44:42;;;;;;;0.77;0.77;;;5.10;96.80;;;;;;4928056;29;20182;-61
2023/11/30 11:47:08;;;;;;;0.40;0.40;;;5.10;96.70;;;;;;4914755;29;20200;-62
2023/11/30 11:49:34;;;;;;;0.40;0.40;;;5.10;96.40;;;;;;4915531;29;20506;-62
2023/11/30 11:52:00;;;;;;;0.40;0.40;;;5.10;96.30;;;;;;4925741;29;20479;-62
2023/11/30 11:54:26;;;;;;;0.50;0.50;;;5.10;96.40;;;;;;4937464;29;20206;-61
2023/11/30 11:56:52;;;;;;;0.43;0.43;;;5.00;96.40;;;;;;4937426;29;20418;-61
2023/11/30 11:59:20;;;;;;;0.45;0.45;;;5.00;96.60;;;;;;4936821;29;20426;-61
2023/11/30 12:01:47;;;;;;;0.40;0.40;;;5.00;97.00;;;;;;4937812;29;20178;-61
2023/11/30 12:04:13;;;;;;;1.50;1.00;;;5.10;97.10;;;;;;4920027;29;20243;-61
2023/11/30 12:06:38;;;;;;;1.40;1.40;;;5.10;97.10;;;;;;4913400;29;20703;-61
2023/11/30 12:09:10;;;;;;;1.58;1.48;;;5.10;97.20;;;;;;4934689;29;20187;-60
2023/11/30 12:11:36;;;;;;;1.15;1.15;;;5.20;97.10;;;;;;4901349;29;20270;-61
2023/11/30 12:14:01;;;;;;;1.23;1.13;;;5.20;97.10;;;;;;4923274;29;20655;-61
2023/11/30 12:16:27;;;;;;;0.70;0.70;;;5.30;97.00;;;;;;4901965;29;20190;-61
2023/11/30 12:18:53;;;;;;;1.57;1.47;;;5.20;96.80;;;;;;4929420;29;20182;-61
2023/11/30 12:21:21;;;;;;;1.70;1.60;;;5.20;96.80;;;;;;4926257;29;20189;-62
2023/11/30 12:23:47;;;;;;;2.28;2.17;;;5.20;96.60;;;;;;4932592;29;20669;-61
2023/11/30 12:26:13;;;;;;;1.85;1.60;;;5.10;96.70;;;;;;4921092;29;20184;-61
2023/11/30 12:28:38;;;;;;;1.80;1.70;;;5.10;96.90;;;;;;4918169;29;20538;-61
2023/11/30 12:31:05;;;;;;;1.17;1.17;;;5.10;96.90;;;;;;4918205;29;20175;-62
2023/11/30 12:33:31;;;;;;;1.10;0.95;;;5.10;96.80;;;;;;4924141;29;20656;-61
2023/11/30 12:35:57;;;;;;;1.37;1.30;;;5.10;96.90;;;;;;4937258;29;20187;-61
2023/11/30 12:38:22;;;;;;;1.27;1.23;;;5.10;97.00;;;;;;4937145;29;20414;-61
2023/11/30 12:40:48;;;;;;;1.70;1.60;;;5.10;96.90;;;;;;4922452;29;20565;-61
2023/11/30 12:43:16;;;;;;;5.83;4.23;;;5.10;97.20;;;;;;4917596;29;20564;-61
2023/11/30 12:45:43;;;;;;;2.67;2.08;;;5.10;97.50;;;;;;4905818;29;20195;-61
2023/11/30 12:48:08;;;;;;;1.75;1.65;;;5.10;96.90;;;;;;4920039;29;20496;-61
2023/11/30 12:50:35;;;;;;;2.10;1.95;;;5.00;96.90;;;;;;4936860;29;20492;-61
2023/11/30 12:53:00;;;;;;;2.90;2.00;;;5.00;97.10;;;;;;4936358;29;20210;-61
2023/11/30 12:55:26;;;;;;;0.40;0.40;;;5.00;97.00;;;;;;4936840;29;20182;-61